createdAt,value
2023-03-26T00:01:09.780Z,9.93
2023-03-26T00:03:27.056Z,11.90
2023-03-26T00:05:45.500Z,9.23
2023-03-26T00:08:02.889Z,7.50
2023-03-26T00:10:20.260Z,7.25
2023-03-26T00:12:37.213Z,6.75
2023-03-26T00:14:54.526Z,7.13
2023-03-26T00:17:11.758Z,8.90
2023-03-26T00:19:28.811Z,15.65
2023-03-26T00:21:45.726Z,12.73
2023-03-26T00:24:02.777Z,6.60
2023-03-26T00:26:19.642Z,7.05
2023-03-26T00:28:36.984Z,8.82
2023-03-26T00:30:54.362Z,7.50
2023-03-26T00:33:11.345Z,11.10
2023-03-26T00:35:28.245Z,8.88
2023-03-26T00:37:45.598Z,9.77
2023-03-26T00:40:02.952Z,7.68
2023-03-26T00:42:20.316Z,7.70
2023-03-26T00:44:37.624Z,13.07
2023-03-26T00:46:54.950Z,11.98
2023-03-26T00:49:11.863Z,7.50
2023-03-26T00:51:28.866Z,10.27
2023-03-26T00:53:45.855Z,9.15
2023-03-26T00:56:03.003Z,10.52
2023-03-26T00:58:19.925Z,10.50
2023-03-26T01:00:37.250Z,9.35
2023-03-26T01:02:54.369Z,8.45
2023-03-26T01:05:11.465Z,10.82
2023-03-26T01:07:28.486Z,10.98
2023-03-26T01:09:45.522Z,6.47
2023-03-26T01:12:02.845Z,10.63
2023-03-26T01:14:19.751Z,9.85
2023-03-26T01:16:38.004Z,9.25
2023-03-26T01:18:55.071Z,15.85
2023-03-26T01:21:12.293Z,10.13
2023-03-26T01:23:29.346Z,7.53
2023-03-26T01:25:46.390Z,7.97
2023-03-26T01:28:03.858Z,8.98
2023-03-26T01:30:21.214Z,7.57
2023-03-26T01:32:38.742Z,7.47
2023-03-26T01:34:55.820Z,8.43
2023-03-26T01:37:12.841Z,13.27
2023-03-26T01:39:29.863Z,13.98
2023-03-26T01:41:46.878Z,12.75
2023-03-26T01:44:03.780Z,8.93
2023-03-26T01:46:21.046Z,5.00
2023-03-26T01:48:38.032Z,6.05
2023-03-26T01:50:55.089Z,6.65
2023-03-26T01:53:12.093Z,7.85
2023-03-26T01:55:29.176Z,9.00
2023-03-26T01:57:46.268Z,8.27
2023-03-26T02:00:03.277Z,9.23
2023-03-26T02:02:20.248Z,7.78
2023-03-26T02:04:37.361Z,5.50
2023-03-26T02:06:54.652Z,8.68
2023-03-26T02:09:11.710Z,6.88
2023-03-26T02:11:35.539Z,9.77
2023-03-26T02:13:53.002Z,8.40
2023-03-26T02:16:10.073Z,7.63
2023-03-26T02:18:27.052Z,9.02
2023-03-26T02:20:43.974Z,10.25
2023-03-26T02:23:00.829Z,14.43
2023-03-26T02:25:17.745Z,7.05
2023-03-26T02:27:34.678Z,11.20
2023-03-26T02:29:51.707Z,11.90
2023-03-26T02:32:09.050Z,12.57
2023-03-26T02:34:26.091Z,8.85
2023-03-26T02:36:43.251Z,11.23
2023-03-26T02:39:00.251Z,13.38
2023-03-26T02:41:17.128Z,14.50
2023-03-26T02:43:34.136Z,7.90
2023-03-26T02:45:51.084Z,9.90
2023-03-26T02:48:08.182Z,10.75
2023-03-26T02:50:25.148Z,9.82
2023-03-26T02:52:42.051Z,12.52
2023-03-26T02:54:58.993Z,10.10
2023-03-26T02:57:17.237Z,9.45
2023-03-26T02:59:34.243Z,10.85
2023-03-26T03:01:51.298Z,12.30
2023-03-26T03:04:08.365Z,7.22
2023-03-26T03:06:25.340Z,8.70
2023-03-26T03:08:42.321Z,10.57
2023-03-26T03:10:59.247Z,11.48
2023-03-26T03:13:16.266Z,15.88
2023-03-26T03:15:33.113Z,15.75
2023-03-26T03:17:50.147Z,10.20
2023-03-26T03:20:08.129Z,10.43
2023-03-26T03:22:25.191Z,11.43
2023-03-26T03:24:42.417Z,11.93
2023-03-26T03:26:59.415Z,12.00
2023-03-26T03:29:16.712Z,9.35
2023-03-26T03:31:33.966Z,9.80
2023-03-26T03:33:51.162Z,12.75
2023-03-26T03:36:08.151Z,10.73
2023-03-26T03:38:25.192Z,15.48
2023-03-26T03:40:43.280Z,10.10
2023-03-26T03:43:00.593Z,11.48
2023-03-26T03:45:17.540Z,11.50
2023-03-26T03:47:34.601Z,8.95
2023-03-26T03:49:51.650Z,9.45
2023-03-26T03:52:08.845Z,12.10
2023-03-26T03:54:25.873Z,12.45
2023-03-26T03:56:43.934Z,12.00
2023-03-26T03:59:00.968Z,13.27
2023-03-26T04:01:18.972Z,12.88
2023-03-26T04:03:36.096Z,10.43
2023-03-26T04:05:53.254Z,13.77
2023-03-26T04:08:10.499Z,15.55
2023-03-26T04:10:27.397Z,7.13
2023-03-26T04:12:44.284Z,12.07
2023-03-26T04:15:01.471Z,7.78
2023-03-26T04:17:18.716Z,12.75
2023-03-26T04:19:35.634Z,9.23
2023-03-26T04:21:52.869Z,8.80
2023-03-26T04:24:09.886Z,11.23
2023-03-26T04:26:27.033Z,10.57
2023-03-26T04:28:44.023Z,9.85
2023-03-26T04:31:01.139Z,7.47
2023-03-26T04:33:18.257Z,7.15
2023-03-26T04:35:35.323Z,8.10
2023-03-26T04:37:52.597Z,8.60
2023-03-26T04:40:10.679Z,10.57
2023-03-26T04:42:27.766Z,10.63
2023-03-26T04:44:45.799Z,7.90
2023-03-26T04:47:02.774Z,9.10
2023-03-26T04:49:19.788Z,8.13
2023-03-26T04:51:36.904Z,10.77
2023-03-26T04:53:54.215Z,10.80
2023-03-26T04:56:11.264Z,11.05
2023-03-26T04:58:28.146Z,7.57
2023-03-26T05:00:45.410Z,8.65
2023-03-26T05:03:02.535Z,11.52
2023-03-26T05:05:20.600Z,10.38
2023-03-26T05:07:37.640Z,7.35
2023-03-26T05:09:55.932Z,12.02
2023-03-26T05:12:13.941Z,10.18
2023-03-26T05:14:30.878Z,7.70
2023-03-26T05:16:48.299Z,12.38
2023-03-26T05:19:05.627Z,11.88
2023-03-26T05:21:22.679Z,7.95
2023-03-26T05:23:39.611Z,12.27
2023-03-26T05:25:56.658Z,12.38
2023-03-26T05:28:14.646Z,9.80
2023-03-26T05:30:31.517Z,10.43
2023-03-26T05:32:48.782Z,11.32
2023-03-26T05:35:05.997Z,9.95
2023-03-26T05:37:22.885Z,14.95
2023-03-26T05:39:39.929Z,9.45
2023-03-26T05:41:56.960Z,11.25
2023-03-26T05:44:14.090Z,9.68
2023-03-26T05:46:31.078Z,6.85
2023-03-26T05:48:48.159Z,8.95
2023-03-26T05:51:18.963Z,8.30
2023-03-26T05:53:36.245Z,10.10
2023-03-26T05:55:54.209Z,8.98
2023-03-26T05:58:11.151Z,12.10
2023-03-26T06:00:28.129Z,13.70
2023-03-26T06:02:45.212Z,11.38
2023-03-26T06:05:02.166Z,11.18
2023-03-26T06:07:19.115Z,11.77
2023-03-26T06:09:37.084Z,14.10
2023-03-26T06:11:54.122Z,15.13
2023-03-26T06:14:11.170Z,11.35
2023-03-26T06:16:28.667Z,11.38
2023-03-26T06:18:45.752Z,12.05
2023-03-26T06:21:02.740Z,11.10
2023-03-26T06:23:19.756Z,11.95
2023-03-26T06:25:36.890Z,14.38
2023-03-26T06:27:54.084Z,12.40
2023-03-26T06:30:11.019Z,7.20
2023-03-26T06:32:28.351Z,10.27
2023-03-26T06:34:45.650Z,11.77
2023-03-26T06:37:02.699Z,9.70
2023-03-26T06:39:19.738Z,11.32
2023-03-26T06:41:36.791Z,14.15
2023-03-26T06:43:54.081Z,7.22
2023-03-26T06:46:11.098Z,10.48
2023-03-26T06:48:29.148Z,12.23
2023-03-26T06:50:46.079Z,10.35
2023-03-26T06:53:04.153Z,13.90
2023-03-26T06:55:21.158Z,12.00
2023-03-26T06:57:38.229Z,12.98
2023-03-26T06:59:55.261Z,16.52
2023-03-26T07:02:12.600Z,8.32
2023-03-26T07:04:29.921Z,10.73
2023-03-26T07:06:46.934Z,14.13
2023-03-26T07:09:03.834Z,13.10
2023-03-26T07:11:20.916Z,16.85
2023-03-26T07:13:37.995Z,13.98
2023-03-26T07:15:55.304Z,10.68
2023-03-26T07:18:12.258Z,9.52
2023-03-26T07:20:29.202Z,7.07
2023-03-26T07:22:46.214Z,8.80
2023-03-26T07:25:03.237Z,12.18
2023-03-26T07:27:20.157Z,10.18
2023-03-26T07:29:37.508Z,10.20
2023-03-26T07:31:54.804Z,7.40
2023-03-26T07:34:12.143Z,7.88
2023-03-26T07:36:29.082Z,6.90
2023-03-26T07:38:47.142Z,4.65
2023-03-26T07:41:04.140Z,7.03
2023-03-26T07:43:21.043Z,5.75
2023-03-26T07:45:39.090Z,7.40
2023-03-26T07:47:56.379Z,7.75
2023-03-26T07:50:13.687Z,6.30
2023-03-26T07:52:30.704Z,6.20
2023-03-26T07:54:48.538Z,5.90
2023-03-26T07:57:05.866Z,5.40
2023-03-26T07:59:23.156Z,4.22
2023-03-26T08:01:40.099Z,4.97
2023-03-26T08:03:57.989Z,4.53
2023-03-26T08:06:15.223Z,8.02
2023-03-26T08:08:32.056Z,7.45
2023-03-26T08:10:49.344Z,6.78
2023-03-26T08:13:06.708Z,5.57
2023-03-26T08:15:23.924Z,5.75
2023-03-26T08:17:41.007Z,4.75
2023-03-26T08:19:58.047Z,5.38
2023-03-26T08:22:15.243Z,6.55
2023-03-26T08:24:33.525Z,5.18
2023-03-26T08:26:50.408Z,4.35
2023-03-26T08:29:07.372Z,3.78
2023-03-26T08:31:24.695Z,5.78
2023-03-26T08:33:41.681Z,6.75
2023-03-26T08:35:58.716Z,6.70
2023-03-26T08:38:15.808Z,4.97
2023-03-26T08:40:33.878Z,5.50
2023-03-26T08:42:50.981Z,5.40
2023-03-26T08:45:08.176Z,6.30
2023-03-26T08:47:25.550Z,4.25
2023-03-26T08:49:42.805Z,3.33
2023-03-26T08:51:59.831Z,4.55
2023-03-26T08:54:17.140Z,5.93
2023-03-26T08:56:34.172Z,4.30
2023-03-26T08:58:51.199Z,4.47
2023-03-26T09:01:08.237Z,7.47
2023-03-26T09:03:25.324Z,5.07
2023-03-26T09:05:43.383Z,4.05
2023-03-26T09:08:00.319Z,4.30
2023-03-26T09:10:18.253Z,4.20
2023-03-26T09:12:35.113Z,3.90
2023-03-26T09:14:52.486Z,3.67
2023-03-26T09:17:09.458Z,5.78
2023-03-26T09:19:27.390Z,2.58
2023-03-26T09:21:44.331Z,5.55
2023-03-26T09:24:02.360Z,3.47
2023-03-26T09:26:19.364Z,3.72
2023-03-26T09:28:36.433Z,4.63
2023-03-26T09:30:53.792Z,3.60
2023-03-26T09:33:10.963Z,5.32
2023-03-26T09:35:28.140Z,6.30
2023-03-26T09:37:56.229Z,6.07
2023-03-26T09:40:14.173Z,4.53
2023-03-26T09:42:31.260Z,5.68
2023-03-26T09:44:48.270Z,6.47
2023-03-26T09:47:05.332Z,6.75
2023-03-26T09:49:23.354Z,3.33
2023-03-26T09:51:40.387Z,3.70
2023-03-26T09:53:58.341Z,4.00
2023-03-26T09:56:15.418Z,5.45
2023-03-26T09:58:32.724Z,6.07
2023-03-26T10:00:49.831Z,4.15
2023-03-26T10:03:07.134Z,5.70
2023-03-26T10:05:24.547Z,4.65
2023-03-26T10:07:41.470Z,4.38
2023-03-26T10:09:58.402Z,3.92
2023-03-26T10:12:15.613Z,4.50
2023-03-26T10:14:32.984Z,3.13
2023-03-26T10:16:50.021Z,5.85
2023-03-26T10:19:07.025Z,3.40
2023-03-26T10:21:26.176Z,4.97
2023-03-26T10:23:45.005Z,2.50
2023-03-26T10:26:02.165Z,2.58
2023-03-26T10:28:19.247Z,1.88
2023-03-26T10:30:36.156Z,4.03
2023-03-26T10:32:53.297Z,2.13
2023-03-26T10:35:11.111Z,2.55
2023-03-26T10:37:28.004Z,2.92
2023-03-26T10:39:45.088Z,1.65
2023-03-26T10:42:02.502Z,1.75
2023-03-26T10:44:20.539Z,1.83
2023-03-26T10:46:37.680Z,1.35
2023-03-26T10:48:56.073Z,1.85
2023-03-26T10:51:13.301Z,2.15
2023-03-26T10:53:31.588Z,21.52
2023-03-26T10:55:48.579Z,13.48
2023-03-26T10:58:05.566Z,3.38
2023-03-26T11:00:25.348Z,2.92
2023-03-26T11:02:42.687Z,2.67
2023-03-26T11:04:59.682Z,3.08
2023-03-26T11:07:17.744Z,3.70
2023-03-26T11:09:34.833Z,6.30
2023-03-26T11:11:51.859Z,3.08
2023-03-26T11:14:09.204Z,4.68
2023-03-26T11:16:26.264Z,2.33
2023-03-26T11:18:43.200Z,1.42
2023-03-26T11:21:18.711Z,1.20
2023-03-26T11:23:37.398Z,2.20
2023-03-26T11:25:54.327Z,2.97
2023-03-26T11:28:12.928Z,4.72
2023-03-26T11:30:30.899Z,5.05
2023-03-26T11:32:47.956Z,3.55
2023-03-26T11:35:05.008Z,1.92
2023-03-26T11:37:22.046Z,2.80
2023-03-26T11:39:38.974Z,2.58
2023-03-26T11:41:56.046Z,2.03
2023-03-26T11:44:13.118Z,3.50
2023-03-26T11:46:31.876Z,3.33
2023-03-26T11:48:50.211Z,3.70
2023-03-26T11:51:07.230Z,2.83
2023-03-26T11:53:24.258Z,3.92
2023-03-26T11:55:42.486Z,1.40
2023-03-26T11:57:59.708Z,3.33
2023-03-26T12:00:16.592Z,1.92
2023-03-26T12:02:33.592Z,2.60
2023-03-26T12:04:50.786Z,1.17
2023-03-26T12:07:07.775Z,2.53
2023-03-26T12:09:25.072Z,4.00
2023-03-26T12:11:42.198Z,2.05
2023-03-26T12:13:59.264Z,4.18
2023-03-26T12:16:16.657Z,3.85
2023-03-26T12:18:33.798Z,2.97
2023-03-26T12:20:51.127Z,5.55
2023-03-26T12:23:09.335Z,3.15
2023-03-26T12:25:26.387Z,3.85
2023-03-26T12:27:43.447Z,2.00
2023-03-26T12:30:00.756Z,2.13
2023-03-26T12:32:18.408Z,3.40
2023-03-26T12:34:35.734Z,1.50
2023-03-26T12:36:52.619Z,3.53
2023-03-26T12:39:16.352Z,3.00
2023-03-26T12:44:51.312Z,2.95
2023-03-26T12:44:55.609Z,3.58
2023-03-26T12:47:56.512Z,3.72
2023-03-26T12:49:37.784Z,2.67
2023-03-26T12:51:55.117Z,5.60
2023-03-26T12:54:12.156Z,3.05
2023-03-26T12:56:29.185Z,3.75
2023-03-26T12:58:46.436Z,3.55
2023-03-26T13:01:03.465Z,4.70
2023-03-26T13:03:20.815Z,4.25
2023-03-26T13:05:38.224Z,4.13
2023-03-26T13:07:55.253Z,3.75
2023-03-26T13:10:12.199Z,2.08
2023-03-26T13:12:30.291Z,8.10
2023-03-26T13:14:47.327Z,3.78
2023-03-26T13:17:04.282Z,3.05
2023-03-26T13:19:21.385Z,8.43
2023-03-26T13:21:38.659Z,3.60
2023-03-26T13:23:55.968Z,4.55
2023-03-26T13:26:13.160Z,4.95
2023-03-26T13:28:30.603Z,6.45
2023-03-26T13:30:47.661Z,4.05
2023-03-26T13:33:04.757Z,3.00
2023-03-26T13:35:22.080Z,5.78
2023-03-26T13:37:39.119Z,4.32
2023-03-26T13:39:56.382Z,5.10
2023-03-26T13:42:14.008Z,6.47
2023-03-26T13:44:31.364Z,5.40
2023-03-26T13:46:48.435Z,7.90
2023-03-26T13:49:05.695Z,6.22
2023-03-26T13:51:22.691Z,8.63
2023-03-26T13:53:39.718Z,5.38
2023-03-26T13:55:58.016Z,6.60
2023-03-26T13:58:15.320Z,3.20
2023-03-26T14:00:32.371Z,6.82
2023-03-26T14:02:49.921Z,5.05
2023-03-26T14:05:06.944Z,3.30
2023-03-26T14:07:24.221Z,2.25
2023-03-26T14:09:42.306Z,6.13
2023-03-26T14:11:59.532Z,3.42
2023-03-26T14:14:16.588Z,3.45
2023-03-26T14:16:33.995Z,3.65
2023-03-26T14:18:50.924Z,2.45
2023-03-26T14:21:07.987Z,2.28
2023-03-26T14:23:25.111Z,5.55
2023-03-26T14:25:42.384Z,3.50
2023-03-26T14:27:59.622Z,4.63
2023-03-26T14:30:16.689Z,5.95
2023-03-26T14:32:34.212Z,5.53
2023-03-26T14:34:51.185Z,3.95
2023-03-26T14:37:08.508Z,4.85
2023-03-26T14:39:25.519Z,4.82
2023-03-26T14:41:42.880Z,7.20
2023-03-26T14:43:59.990Z,3.92
2023-03-26T14:46:17.115Z,4.85
2023-03-26T14:48:34.677Z,5.13
2023-03-26T14:50:51.662Z,7.80
2023-03-26T14:53:09.768Z,7.63
2023-03-26T14:55:27.140Z,2.15
2023-03-26T14:57:45.055Z,2.92
2023-03-26T15:00:02.249Z,2.88
2023-03-26T15:02:19.241Z,5.30
2023-03-26T15:04:36.218Z,4.22
2023-03-26T15:06:53.572Z,4.57
2023-03-26T15:09:10.555Z,2.53
2023-03-26T15:11:27.814Z,3.25
2023-03-26T15:13:44.847Z,4.13
2023-03-26T15:16:02.283Z,1.63
2023-03-26T15:18:19.360Z,2.70
2023-03-26T15:20:37.501Z,1.33
2023-03-26T15:22:54.577Z,2.88
2023-03-26T15:25:12.562Z,2.55
2023-03-26T15:27:29.687Z,1.60
2023-03-26T15:29:46.765Z,3.25
2023-03-26T15:32:03.745Z,2.03
2023-03-26T15:34:20.765Z,2.63
2023-03-26T15:36:37.720Z,3.13
2023-03-26T15:38:54.730Z,3.55
2023-03-26T15:41:11.808Z,1.05
2023-03-26T15:43:28.866Z,2.97
2023-03-26T15:45:46.173Z,1.70
2023-03-26T15:48:03.174Z,0.45
2023-03-26T15:50:20.105Z,1.48
2023-03-26T15:52:37.012Z,1.75
2023-03-26T15:54:54.157Z,0.88
2023-03-26T15:57:11.478Z,1.55
2023-03-26T15:59:28.463Z,2.25
2023-03-26T16:01:45.459Z,1.40
2023-03-26T16:04:02.484Z,3.45
2023-03-26T16:06:19.770Z,1.25
2023-03-26T16:08:38.757Z,1.77
2023-03-26T16:10:56.206Z,3.47
2023-03-26T16:13:13.454Z,2.80
2023-03-26T16:15:30.811Z,1.25
2023-03-26T16:17:48.253Z,0.40
2023-03-26T16:20:05.253Z,1.90
2023-03-26T16:22:22.294Z,3.22
2023-03-26T16:24:40.368Z,5.38
2023-03-26T16:26:57.446Z,6.22
2023-03-26T16:29:14.593Z,12.30
2023-03-26T16:31:37.533Z,10.63
2023-03-26T16:33:56.365Z,2.47
2023-03-26T16:36:13.567Z,4.32
2023-03-26T16:38:30.688Z,1.38
2023-03-26T16:40:47.638Z,2.25
2023-03-26T16:43:04.882Z,2.97
2023-03-26T16:45:22.212Z,2.28
2023-03-26T16:47:39.291Z,1.95
2023-03-26T16:50:07.774Z,1.27
2023-03-26T16:52:26.512Z,2.63
2023-03-26T16:54:45.999Z,2.47
2023-03-26T16:57:03.169Z,1.38
2023-03-26T16:59:20.129Z,2.63
2023-03-26T17:01:38.310Z,2.17
2023-03-26T17:03:55.667Z,2.08
2023-03-26T17:06:12.643Z,1.25
2023-03-26T17:08:36.030Z,4.30
2023-03-26T17:10:54.501Z,3.35
2023-03-26T17:13:11.533Z,3.75
2023-03-26T17:15:28.472Z,1.05
2023-03-26T17:17:45.887Z,1.58
2023-03-26T17:20:03.160Z,0.60
2023-03-26T17:22:20.063Z,2.38
2023-03-26T17:24:37.066Z,1.77
2023-03-26T17:26:54.066Z,2.40
2023-03-26T17:29:12.284Z,2.28
2023-03-26T17:31:29.354Z,2.75
2023-03-26T17:33:46.472Z,0.90
2023-03-26T17:36:04.812Z,1.38
2023-03-26T17:38:21.856Z,1.83
2023-03-26T17:40:38.963Z,4.85
2023-03-26T17:42:56.042Z,3.72
2023-03-26T17:45:13.103Z,3.50
2023-03-26T17:47:31.353Z,1.27
2023-03-26T17:49:48.354Z,1.85
2023-03-26T17:52:05.267Z,0.57
2023-03-26T17:54:22.580Z,1.27
2023-03-26T17:56:39.949Z,5.53
2023-03-26T17:58:57.257Z,4.03
2023-03-26T18:01:14.340Z,2.92
2023-03-26T18:03:31.445Z,0.98
2023-03-26T18:05:48.448Z,0.80
2023-03-26T18:08:05.663Z,2.33
2023-03-26T18:10:22.718Z,1.30
2023-03-26T18:12:39.701Z,1.70
2023-03-26T18:14:56.774Z,1.00
2023-03-26T18:17:13.808Z,1.67
2023-03-26T18:19:30.890Z,0.98
2023-03-26T18:21:48.024Z,1.60
2023-03-26T18:24:05.013Z,1.13
2023-03-26T18:26:21.942Z,0.77
2023-03-26T18:28:39.630Z,1.42
2023-03-26T18:30:56.824Z,3.95
2023-03-26T18:33:14.082Z,2.85
2023-03-26T18:35:31.207Z,2.63
2023-03-26T18:37:48.238Z,1.80
2023-03-26T18:40:05.357Z,0.95
2023-03-26T18:42:23.145Z,2.97
2023-03-26T18:44:42.312Z,1.00
2023-03-26T18:46:59.273Z,1.60
2023-03-26T18:49:16.243Z,0.60
2023-03-26T18:51:38.338Z,0.40
2023-03-26T18:54:00.461Z,0.60
2023-03-26T18:56:17.377Z,2.38
2023-03-26T18:58:34.719Z,3.13
2023-03-26T19:00:51.800Z,2.10
2023-03-26T19:03:08.791Z,4.97
2023-03-26T19:05:25.958Z,1.23
2023-03-26T19:07:43.012Z,0.63
2023-03-26T19:10:00.444Z,0.60
2023-03-26T19:12:17.403Z,0.40
2023-03-26T19:14:34.454Z,0.60
2023-03-26T19:16:51.532Z,0.98
2023-03-26T19:19:09.638Z,0.80
2023-03-26T19:21:27.321Z,0.60
2023-03-26T19:23:44.632Z,1.38
2023-03-26T19:26:01.913Z,0.63
2023-03-26T19:28:19.178Z,0.65
2023-03-26T19:30:36.533Z,0.40
2023-03-26T19:32:53.629Z,0.68
2023-03-26T19:35:10.984Z,0.80
2023-03-26T19:37:29.382Z,0.70
2023-03-26T19:39:46.438Z,0.82
2023-03-26T19:42:04.248Z,1.05
2023-03-26T19:44:21.664Z,1.02
2023-03-26T19:46:53.306Z,0.70
2023-03-26T19:49:11.497Z,1.30
2023-03-26T19:51:28.785Z,0.80
2023-03-26T19:53:45.868Z,2.22
2023-03-26T19:56:04.460Z,1.48
2023-03-26T19:58:22.491Z,1.85
2023-03-26T20:00:39.386Z,1.20
2023-03-26T20:02:56.583Z,0.95
2023-03-26T20:05:13.999Z,0.90
2023-03-26T20:07:35.918Z,1.00
2023-03-26T20:09:53.735Z,1.00
2023-03-26T20:12:10.851Z,0.80
2023-03-26T20:14:28.401Z,1.48
2023-03-26T20:16:46.177Z,0.95
2023-03-26T20:19:03.768Z,1.38
2023-03-26T20:21:20.872Z,1.73
2023-03-26T20:23:38.771Z,1.05
2023-03-26T20:25:56.113Z,1.33
2023-03-26T20:28:13.300Z,1.05
2023-03-26T20:32:50.573Z,0.93
2023-03-26T20:35:35.975Z,0.75
2023-03-26T20:37:54.012Z,1.17
2023-03-26T20:40:11.311Z,2.10
2023-03-26T20:42:28.659Z,1.55
2023-03-26T20:44:45.707Z,0.70
2023-03-26T20:47:02.695Z,0.93
2023-03-26T20:49:20.045Z,1.00
2023-03-26T20:51:37.042Z,2.15
2023-03-26T20:53:54.270Z,1.10
2023-03-26T20:56:11.559Z,1.55
2023-03-26T20:58:31.189Z,1.10
2023-03-26T21:00:49.352Z,1.00
2023-03-26T21:03:06.464Z,1.20
2023-03-26T21:05:23.521Z,1.25
2023-03-26T21:07:40.788Z,1.20
2023-03-26T21:09:58.179Z,1.40
2023-03-26T21:12:15.158Z,1.35
2023-03-26T21:14:32.351Z,3.05
2023-03-26T21:16:49.688Z,1.50
2023-03-26T21:19:07.048Z,4.28
2023-03-26T21:21:23.961Z,3.08
2023-03-26T21:23:41.216Z,3.25
2023-03-26T21:25:58.346Z,3.03
2023-03-26T21:28:16.332Z,2.45
2023-03-26T21:30:33.273Z,2.90
2023-03-26T21:32:51.241Z,3.05
2023-03-26T21:35:08.545Z,3.28
2023-03-26T21:37:25.890Z,3.28
2023-03-26T21:39:42.809Z,4.10
2023-03-26T21:42:05.180Z,3.25
2023-03-26T21:44:22.980Z,5.57
2023-03-26T21:46:40.241Z,4.47
2023-03-26T21:48:57.496Z,5.60
2023-03-26T21:51:14.493Z,6.25
2023-03-26T21:53:31.599Z,7.43
2023-03-26T21:55:48.545Z,7.05
2023-03-26T21:58:05.564Z,6.50
2023-03-26T22:00:25.751Z,7.55
2023-03-26T22:02:45.275Z,8.27
2023-03-26T22:05:03.328Z,8.45
2023-03-26T22:07:20.638Z,8.23
2023-03-26T22:09:37.842Z,8.88
2023-03-26T22:11:54.943Z,9.75
2023-03-26T22:14:11.966Z,8.27
2023-03-26T22:16:29.022Z,10.43
2023-03-26T22:18:46.313Z,10.05
2023-03-26T22:21:03.325Z,9.68
2023-03-26T22:23:20.265Z,9.32
2023-03-26T22:25:37.547Z,7.47
2023-03-26T22:27:54.804Z,10.05
2023-03-26T22:30:12.714Z,10.20
2023-03-26T22:32:32.760Z,9.75
2023-03-26T22:34:50.347Z,8.85
2023-03-26T22:37:07.429Z,8.65
2023-03-26T22:39:24.815Z,10.70
2023-03-26T22:41:42.146Z,15.10
2023-03-26T22:43:59.681Z,11.95
2023-03-26T22:46:21.099Z,11.55
2023-03-26T22:48:38.112Z,12.20
2023-03-26T22:50:55.572Z,15.63
2023-03-26T22:53:12.737Z,13.00
2023-03-26T22:55:31.016Z,19.08
2023-03-26T22:57:49.005Z,15.43
2023-03-26T23:00:06.015Z,17.77
2023-03-26T23:02:23.397Z,17.02
2023-03-26T23:04:40.855Z,13.20
2023-03-26T23:06:57.938Z,16.17
2023-03-26T23:09:15.239Z,18.00
2023-03-26T23:11:32.540Z,12.95
2023-03-26T23:13:49.861Z,18.95
2023-03-26T23:16:07.319Z,12.00
2023-03-26T23:18:25.395Z,15.43
2023-03-26T23:20:42.718Z,18.65
2023-03-26T23:22:59.725Z,16.73
2023-03-26T23:25:17.079Z,20.60
2023-03-26T23:27:33.944Z,20.52
2023-03-26T23:29:51.222Z,19.08
2023-03-26T23:32:23.468Z,17.48
2023-03-26T23:34:41.445Z,16.02
2023-03-26T23:37:09.111Z,15.10
2023-03-26T23:39:26.031Z,18.67
2023-03-26T23:41:45.497Z,22.10
2023-03-26T23:44:02.475Z,20.38
2023-03-26T23:46:19.442Z,20.30
2023-03-26T23:48:36.546Z,19.60
2023-03-26T23:50:54.756Z,21.63
2023-03-26T23:53:20.612Z,18.58
2023-03-26T23:55:38.667Z,20.30
2023-03-26T23:57:56.798Z,27.63
